sensor_id;sensor_type;location;lat;lon;timestamp;P1;durP1;ratioP1;P2;durP2;ratioP2
18084;SDS011;9169;44.492;11.372;2024-03-23T00:53:37;20.07;;;5.60;;
18084;SDS011;9169;44.492;11.372;2024-03-23T00:56:04;18.80;;;5.80;;
18084;SDS011;9169;44.492;11.372;2024-03-23T00:58:31;19.90;;;6.20;;
18084;SDS011;9169;44.492;11.372;2024-03-23T01:00:59;21.53;;;6.90;;
18084;SDS011;9169;44.492;11.372;2024-03-23T01:03:25;20.00;;;6.30;;
18084;SDS011;9169;44.492;11.372;2024-03-23T01:05:53;19.87;;;5.87;;
18084;SDS011;9169;44.492;11.372;2024-03-23T01:08:19;22.27;;;5.77;;
18084;SDS011;9169;44.492;11.372;2024-03-23T01:10:54;20.60;;;6.10;;
18084;SDS011;9169;44.492;11.372;2024-03-23T01:13:21;20.10;;;5.97;;
18084;SDS011;9169;44.492;11.372;2024-03-23T01:15:49;23.00;;;6.07;;
18084;SDS011;9169;44.492;11.372;2024-03-23T01:18:17;19.90;;;5.87;;
18084;SDS011;9169;44.492;11.372;2024-03-23T01:20:45;23.30;;;6.67;;
18084;SDS011;9169;44.492;11.372;2024-03-23T01:23:12;21.07;;;6.47;;
18084;SDS011;9169;44.492;11.372;2024-03-23T01:25:39;21.67;;;6.13;;
18084;SDS011;9169;44.492;11.372;2024-03-23T01:28:08;20.90;;;5.63;;
18084;SDS011;9169;44.492;11.372;2024-03-23T01:30:35;23.07;;;6.50;;
18084;SDS011;9169;44.492;11.372;2024-03-23T01:33:02;22.73;;;6.00;;
18084;SDS011;9169;44.492;11.372;2024-03-23T01:35:30;23.33;;;6.20;;
18084;SDS011;9169;44.492;11.372;2024-03-23T01:37:56;26.10;;;6.70;;
18084;SDS011;9169;44.492;11.372;2024-03-23T01:40:24;23.70;;;6.17;;
18084;SDS011;9169;44.492;11.372;2024-03-23T01:42:56;22.40;;;5.63;;
18084;SDS011;9169;44.492;11.372;2024-03-23T01:45:25;26.47;;;6.47;;
18084;SDS011;9169;44.492;11.372;2024-03-23T01:47:52;24.50;;;6.90;;
18084;SDS011;9169;44.492;11.372;2024-03-23T01:50:19;26.20;;;6.77;;
18084;SDS011;9169;44.492;11.372;2024-03-23T01:52:46;24.33;;;6.60;;
18084;SDS011;9169;44.492;11.372;2024-03-23T01:55:15;29.07;;;5.97;;
18084;SDS011;9169;44.492;11.372;2024-03-23T01:57:42;24.60;;;5.73;;
18084;SDS011;9169;44.492;11.372;2024-03-23T02:00:10;21.90;;;5.03;;
18084;SDS011;9169;44.492;11.372;2024-03-23T02:02:42;24.10;;;6.47;;
18084;SDS011;9169;44.492;11.372;2024-03-23T02:05:11;25.30;;;6.17;;
18084;SDS011;9169;44.492;11.372;2024-03-23T02:07:38;27.13;;;5.93;;
18084;SDS011;9169;44.492;11.372;2024-03-23T02:10:06;23.93;;;6.10;;
18084;SDS011;9169;44.492;11.372;2024-03-23T02:12:33;25.67;;;6.60;;
18084;SDS011;9169;44.492;11.372;2024-03-23T02:15:01;26.03;;;6.30;;
18084;SDS011;9169;44.492;11.372;2024-03-23T02:17:30;42.00;;;8.47;;
18084;SDS011;9169;44.492;11.372;2024-03-23T02:20:02;38.90;;;8.60;;
18084;SDS011;9169;44.492;11.372;2024-03-23T02:22:35;37.60;;;6.90;;
18084;SDS011;9169;44.492;11.372;2024-03-23T02:25:05;30.70;;;6.63;;
18084;SDS011;9169;44.492;11.372;2024-03-23T02:27:32;31.80;;;7.57;;
18084;SDS011;9169;44.492;11.372;2024-03-23T02:30:00;26.27;;;5.43;;
18084;SDS011;9169;44.492;11.372;2024-03-23T02:32:28;23.97;;;5.67;;
18084;SDS011;9169;44.492;11.372;2024-03-23T02:34:55;21.00;;;5.10;;
18084;SDS011;9169;44.492;11.372;2024-03-23T02:37:22;21.10;;;5.00;;
18084;SDS011;9169;44.492;11.372;2024-03-23T02:39:49;24.03;;;5.17;;
18084;SDS011;9169;44.492;11.372;2024-03-23T02:42:17;30.30;;;5.93;;
18084;SDS011;9169;44.492;11.372;2024-03-23T02:44:45;32.83;;;5.87;;
18084;SDS011;9169;44.492;11.372;2024-03-23T02:47:12;25.70;;;5.40;;
18084;SDS011;9169;44.492;11.372;2024-03-23T02:49:40;19.20;;;4.63;;
18084;SDS011;9169;44.492;11.372;2024-03-23T02:52:06;20.50;;;4.77;;
18084;SDS011;9169;44.492;11.372;2024-03-23T02:54:34;21.30;;;5.10;;
18084;SDS011;9169;44.492;11.372;2024-03-23T02:57:01;22.60;;;4.70;;
18084;SDS011;9169;44.492;11.372;2024-03-23T02:59:29;22.20;;;5.20;;
18084;SDS011;9169;44.492;11.372;2024-03-23T03:01:56;26.37;;;5.17;;
18084;SDS011;9169;44.492;11.372;2024-03-23T03:04:25;24.73;;;5.90;;
18084;SDS011;9169;44.492;11.372;2024-03-23T03:06:52;22.27;;;5.30;;
18084;SDS011;9169;44.492;11.372;2024-03-23T03:09:19;24.63;;;5.50;;
18084;SDS011;9169;44.492;11.372;2024-03-23T03:11:46;27.40;;;5.80;;
18084;SDS011;9169;44.492;11.372;2024-03-23T03:14:14;31.00;;;6.13;;
18084;SDS011;9169;44.492;11.372;2024-03-23T03:16:42;21.53;;;4.80;;
18084;SDS011;9169;44.492;11.372;2024-03-23T03:19:10;25.10;;;4.83;;
18084;SDS011;9169;44.492;11.372;2024-03-23T03:21:37;21.90;;;5.50;;
18084;SDS011;9169;44.492;11.372;2024-03-23T03:24:05;23.30;;;5.10;;
18084;SDS011;9169;44.492;11.372;2024-03-23T03:26:33;23.30;;;6.27;;
18084;SDS011;9169;44.492;11.372;2024-03-23T03:29:00;24.20;;;5.33;;
18084;SDS011;9169;44.492;11.372;2024-03-23T03:31:28;22.90;;;5.70;;
18084;SDS011;9169;44.492;11.372;2024-03-23T03:33:57;24.27;;;5.47;;
18084;SDS011;9169;44.492;11.372;2024-03-23T03:36:23;24.70;;;5.50;;
18084;SDS011;9169;44.492;11.372;2024-03-23T03:38:51;22.60;;;5.07;;
18084;SDS011;9169;44.492;11.372;2024-03-23T03:41:18;25.40;;;5.17;;
18084;SDS011;9169;44.492;11.372;2024-03-23T03:43:45;23.33;;;5.40;;
18084;SDS011;9169;44.492;11.372;2024-03-23T03:46:12;23.63;;;5.20;;
18084;SDS011;9169;44.492;11.372;2024-03-23T03:48:40;24.13;;;5.23;;
18084;SDS011;9169;44.492;11.372;2024-03-23T03:51:08;23.93;;;5.20;;
18084;SDS011;9169;44.492;11.372;2024-03-23T03:53:35;28.50;;;5.80;;
18084;SDS011;9169;44.492;11.372;2024-03-23T03:56:02;25.33;;;5.47;;
18084;SDS011;9169;44.492;11.372;2024-03-23T03:58:30;29.23;;;5.20;;
18084;SDS011;9169;44.492;11.372;2024-03-23T04:00:57;26.23;;;5.10;;
18084;SDS011;9169;44.492;11.372;2024-03-23T04:03:24;24.73;;;5.27;;
18084;SDS011;9169;44.492;11.372;2024-03-23T04:05:51;25.03;;;5.40;;
18084;SDS011;9169;44.492;11.372;2024-03-23T04:08:21;24.67;;;5.20;;
18084;SDS011;9169;44.492;11.372;2024-03-23T04:10:47;23.03;;;4.80;;
18084;SDS011;9169;44.492;11.372;2024-03-23T04:13:15;24.10;;;5.20;;
18084;SDS011;9169;44.492;11.372;2024-03-23T04:15:42;23.17;;;5.27;;
18084;SDS011;9169;44.492;11.372;2024-03-23T04:18:10;24.20;;;5.47;;
18084;SDS011;9169;44.492;11.372;2024-03-23T04:20:36;24.40;;;5.40;;
18084;SDS011;9169;44.492;11.372;2024-03-23T04:23:04;24.83;;;5.10;;
18084;SDS011;9169;44.492;11.372;2024-03-23T04:25:32;22.60;;;4.80;;
18084;SDS011;9169;44.492;11.372;2024-03-23T04:28:00;22.63;;;5.10;;
18084;SDS011;9169;44.492;11.372;2024-03-23T04:30:26;23.07;;;5.00;;
18084;SDS011;9169;44.492;11.372;2024-03-23T04:32:55;23.97;;;5.43;;
18084;SDS011;9169;44.492;11.372;2024-03-23T04:35:22;25.63;;;5.17;;
18084;SDS011;9169;44.492;11.372;2024-03-23T04:37:51;23.57;;;5.47;;
18084;SDS011;9169;44.492;11.372;2024-03-23T04:40:19;23.17;;;4.90;;
18084;SDS011;9169;44.492;11.372;2024-03-23T04:42:48;26.63;;;5.70;;
18084;SDS011;9169;44.492;11.372;2024-03-23T04:45:15;25.07;;;5.43;;
18084;SDS011;9169;44.492;11.372;2024-03-23T04:47:48;23.70;;;5.00;;
18084;SDS011;9169;44.492;11.372;2024-03-23T04:50:16;28.80;;;5.70;;
18084;SDS011;9169;44.492;11.372;2024-03-23T04:52:44;37.27;;;5.90;;
18084;SDS011;9169;44.492;11.372;2024-03-23T04:55:11;28.67;;;6.00;;
18084;SDS011;9169;44.492;11.372;2024-03-23T04:57:40;36.33;;;6.37;;
18084;SDS011;9169;44.492;11.372;2024-03-23T05:00:08;41.30;;;6.00;;
18084;SDS011;9169;44.492;11.372;2024-03-23T05:02:43;48.53;;;7.57;;
18084;SDS011;9169;44.492;11.372;2024-03-23T05:05:11;30.87;;;6.30;;
18084;SDS011;9169;44.492;11.372;2024-03-23T05:07:38;31.97;;;5.97;;
18084;SDS011;9169;44.492;11.372;2024-03-23T05:10:09;32.63;;;6.40;;
18084;SDS011;9169;44.492;11.372;2024-03-23T05:12:36;34.63;;;6.07;;
18084;SDS011;9169;44.492;11.372;2024-03-23T05:15:04;32.60;;;6.30;;
18084;SDS011;9169;44.492;11.372;2024-03-23T05:17:33;30.87;;;6.20;;
18084;SDS011;9169;44.492;11.372;2024-03-23T05:20:02;35.93;;;6.30;;
18084;SDS011;9169;44.492;11.372;2024-03-23T05:22:29;27.90;;;5.70;;
18084;SDS011;9169;44.492;11.372;2024-03-23T05:24:57;33.20;;;5.83;;
18084;SDS011;9169;44.492;11.372;2024-03-23T05:27:24;34.10;;;6.97;;
18084;SDS011;9169;44.492;11.372;2024-03-23T05:29:51;29.40;;;6.87;;
18084;SDS011;9169;44.492;11.372;2024-03-23T05:32:18;28.43;;;6.00;;
18084;SDS011;9169;44.492;11.372;2024-03-23T05:34:47;27.37;;;5.80;;
18084;SDS011;9169;44.492;11.372;2024-03-23T05:37:16;25.87;;;5.53;;
18084;SDS011;9169;44.492;11.372;2024-03-23T05:39:43;25.17;;;5.70;;
18084;SDS011;9169;44.492;11.372;2024-03-23T05:42:10;26.97;;;5.97;;
18084;SDS011;9169;44.492;11.372;2024-03-23T05:44:37;29.33;;;4.90;;
18084;SDS011;9169;44.492;11.372;2024-03-23T05:47:04;28.63;;;4.80;;
18084;SDS011;9169;44.492;11.372;2024-03-23T05:49:32;23.60;;;5.37;;
18084;SDS011;9169;44.492;11.372;2024-03-23T05:52:00;24.83;;;5.30;;
18084;SDS011;9169;44.492;11.372;2024-03-23T05:54:29;23.30;;;5.03;;
18084;SDS011;9169;44.492;11.372;2024-03-23T05:56:55;25.70;;;5.50;;
18084;SDS011;9169;44.492;11.372;2024-03-23T05:59:23;34.00;;;6.20;;
18084;SDS011;9169;44.492;11.372;2024-03-23T06:01:50;27.00;;;5.93;;
18084;SDS011;9169;44.492;11.372;2024-03-23T06:04:17;26.73;;;5.97;;
18084;SDS011;9169;44.492;11.372;2024-03-23T06:06:45;26.30;;;6.50;;
18084;SDS011;9169;44.492;11.372;2024-03-23T06:09:14;28.70;;;5.93;;
18084;SDS011;9169;44.492;11.372;2024-03-23T06:11:40;28.43;;;6.20;;
18084;SDS011;9169;44.492;11.372;2024-03-23T06:14:08;25.60;;;6.47;;
18084;SDS011;9169;44.492;11.372;2024-03-23T06:16:36;25.93;;;6.37;;
18084;SDS011;9169;44.492;11.372;2024-03-23T06:19:03;29.03;;;6.40;;
18084;SDS011;9169;44.492;11.372;2024-03-23T06:21:32;31.37;;;6.80;;
18084;SDS011;9169;44.492;11.372;2024-03-23T06:24:00;30.03;;;6.00;;
18084;SDS011;9169;44.492;11.372;2024-03-23T06:26:28;31.63;;;6.10;;
18084;SDS011;9169;44.492;11.372;2024-03-23T06:28:55;27.30;;;5.90;;
18084;SDS011;9169;44.492;11.372;2024-03-23T06:31:22;30.80;;;6.43;;
18084;SDS011;9169;44.492;11.372;2024-03-23T06:33:50;22.83;;;5.87;;
18084;SDS011;9169;44.492;11.372;2024-03-23T06:36:16;25.13;;;6.57;;
18084;SDS011;9169;44.492;11.372;2024-03-23T06:38:45;21.13;;;4.70;;
18084;SDS011;9169;44.492;11.372;2024-03-23T06:41:12;19.87;;;4.70;;
18084;SDS011;9169;44.492;11.372;2024-03-23T06:43:41;16.10;;;4.50;;
18084;SDS011;9169;44.492;11.372;2024-03-23T06:46:09;15.10;;;4.43;;
18084;SDS011;9169;44.492;11.372;2024-03-23T06:48:36;16.40;;;4.10;;
18084;SDS011;9169;44.492;11.372;2024-03-23T06:51:03;11.60;;;3.47;;
18084;SDS011;9169;44.492;11.372;2024-03-23T06:53:32;10.60;;;3.37;;
18084;SDS011;9169;44.492;11.372;2024-03-23T06:55:59;11.07;;;4.23;;
18084;SDS011;9169;44.492;11.372;2024-03-23T06:58:26;10.00;;;2.90;;
18084;SDS011;9169;44.492;11.372;2024-03-23T07:00:55;7.87;;;2.77;;
18084;SDS011;9169;44.492;11.372;2024-03-23T07:03:22;9.90;;;3.33;;
18084;SDS011;9169;44.492;11.372;2024-03-23T07:05:51;9.03;;;3.20;;
18084;SDS011;9169;44.492;11.372;2024-03-23T07:08:19;9.73;;;3.37;;
18084;SDS011;9169;44.492;11.372;2024-03-23T07:10:48;15.37;;;3.37;;
18084;SDS011;9169;44.492;11.372;2024-03-23T07:13:15;7.87;;;3.37;;
18084;SDS011;9169;44.492;11.372;2024-03-23T07:15:50;8.30;;;3.00;;
18084;SDS011;9169;44.492;11.372;2024-03-23T07:18:20;7.00;;;2.80;;
18084;SDS011;9169;44.492;11.372;2024-03-23T07:20:51;8.43;;;2.97;;
18084;SDS011;9169;44.492;11.372;2024-03-23T07:23:19;9.30;;;3.57;;
18084;SDS011;9169;44.492;11.372;2024-03-23T07:25:55;6.83;;;3.20;;
18084;SDS011;9169;44.492;11.372;2024-03-23T07:28:23;7.30;;;3.10;;
18084;SDS011;9169;44.492;11.372;2024-03-23T07:31:00;6.90;;;2.93;;
18084;SDS011;9169;44.492;11.372;2024-03-23T07:33:30;8.47;;;3.40;;
18084;SDS011;9169;44.492;11.372;2024-03-23T07:35:57;9.40;;;3.50;;
18084;SDS011;9169;44.492;11.372;2024-03-23T07:38:26;8.20;;;2.83;;
18084;SDS011;9169;44.492;11.372;2024-03-23T07:41:02;6.90;;;3.20;;
18084;SDS011;9169;44.492;11.372;2024-03-23T07:43:31;7.27;;;3.00;;
18084;SDS011;9169;44.492;11.372;2024-03-23T07:45:58;6.13;;;3.00;;
18084;SDS011;9169;44.492;11.372;2024-03-23T07:48:27;5.47;;;3.20;;
18084;SDS011;9169;44.492;11.372;2024-03-23T07:50:59;6.40;;;3.40;;
18084;SDS011;9169;44.492;11.372;2024-03-23T07:53:28;5.40;;;2.80;;
18084;SDS011;9169;44.492;11.372;2024-03-23T07:55:55;8.70;;;3.40;;
18084;SDS011;9169;44.492;11.372;2024-03-23T07:58:24;5.77;;;3.27;;
18084;SDS011;9169;44.492;11.372;2024-03-23T08:00:50;7.23;;;3.43;;
18084;SDS011;9169;44.492;11.372;2024-03-23T08:03:18;13.03;;;3.73;;
18084;SDS011;9169;44.492;11.372;2024-03-23T08:05:46;7.20;;;3.43;;
18084;SDS011;9169;44.492;11.372;2024-03-23T08:08:14;6.97;;;3.83;;
18084;SDS011;9169;44.492;11.372;2024-03-23T08:10:48;8.80;;;3.10;;
18084;SDS011;9169;44.492;11.372;2024-03-23T08:13:16;5.53;;;3.13;;
18084;SDS011;9169;44.492;11.372;2024-03-23T08:15:43;8.03;;;3.53;;
18084;SDS011;9169;44.492;11.372;2024-03-23T08:18:11;8.23;;;3.30;;
18084;SDS011;9169;44.492;11.372;2024-03-23T08:20:38;11.00;;;4.10;;
18084;SDS011;9169;44.492;11.372;2024-03-23T08:23:07;5.67;;;3.17;;
18084;SDS011;9169;44.492;11.372;2024-03-23T08:25:34;6.70;;;3.23;;
18084;SDS011;9169;44.492;11.372;2024-03-23T08:28:02;6.17;;;3.77;;
18084;SDS011;9169;44.492;11.372;2024-03-23T08:30:29;6.33;;;3.30;;
18084;SDS011;9169;44.492;11.372;2024-03-23T08:32:57;6.70;;;3.33;;
18084;SDS011;9169;44.492;11.372;2024-03-23T08:35:24;6.00;;;3.00;;
18084;SDS011;9169;44.492;11.372;2024-03-23T08:37:51;6.10;;;3.47;;
18084;SDS011;9169;44.492;11.372;2024-03-23T08:40:19;5.77;;;3.23;;
18084;SDS011;9169;44.492;11.372;2024-03-23T08:42:48;7.47;;;3.90;;
18084;SDS011;9169;44.492;11.372;2024-03-23T08:45:14;6.83;;;3.43;;
18084;SDS011;9169;44.492;11.372;2024-03-23T08:47:42;6.70;;;3.50;;
18084;SDS011;9169;44.492;11.372;2024-03-23T08:50:09;7.00;;;3.20;;
18084;SDS011;9169;44.492;11.372;2024-03-23T08:52:37;18.00;;;5.00;;
18084;SDS011;9169;44.492;11.372;2024-03-23T08:55:04;6.27;;;3.53;;
18084;SDS011;9169;44.492;11.372;2024-03-23T08:57:33;11.83;;;3.87;;
18084;SDS011;9169;44.492;11.372;2024-03-23T09:00:00;11.40;;;4.30;;
18084;SDS011;9169;44.492;11.372;2024-03-23T09:02:28;5.93;;;3.27;;
18084;SDS011;9169;44.492;11.372;2024-03-23T09:04:56;7.00;;;3.40;;
18084;SDS011;9169;44.492;11.372;2024-03-23T09:07:30;7.03;;;3.30;;
18084;SDS011;9169;44.492;11.372;2024-03-23T09:09:56;6.30;;;3.80;;
18084;SDS011;9169;44.492;11.372;2024-03-23T09:12:24;8.90;;;3.57;;
18084;SDS011;9169;44.492;11.372;2024-03-23T09:14:52;6.10;;;3.20;;
18084;SDS011;9169;44.492;11.372;2024-03-23T09:17:20;6.90;;;3.80;;
18084;SDS011;9169;44.492;11.372;2024-03-23T09:19:46;10.00;;;3.73;;
18084;SDS011;9169;44.492;11.372;2024-03-23T09:22:14;7.50;;;3.40;;
18084;SDS011;9169;44.492;11.372;2024-03-23T09:24:40;8.17;;;4.20;;
18084;SDS011;9169;44.492;11.372;2024-03-23T09:27:08;6.13;;;3.70;;
18084;SDS011;9169;44.492;11.372;2024-03-23T09:29:35;5.90;;;3.50;;
18084;SDS011;9169;44.492;11.372;2024-03-23T09:32:04;6.40;;;3.80;;
18084;SDS011;9169;44.492;11.372;2024-03-23T09:34:31;7.20;;;4.33;;
18084;SDS011;9169;44.492;11.372;2024-03-23T09:36:59;6.03;;;3.80;;
18084;SDS011;9169;44.492;11.372;2024-03-23T09:39:25;7.13;;;3.50;;
18084;SDS011;9169;44.492;11.372;2024-03-23T09:41:56;6.20;;;3.37;;
18084;SDS011;9169;44.492;11.372;2024-03-23T09:44:23;6.63;;;3.43;;
18084;SDS011;9169;44.492;11.372;2024-03-23T09:46:52;8.57;;;3.37;;
18084;SDS011;9169;44.492;11.372;2024-03-23T09:49:23;6.83;;;3.83;;
18084;SDS011;9169;44.492;11.372;2024-03-23T09:51:50;6.53;;;3.63;;
18084;SDS011;9169;44.492;11.372;2024-03-23T09:54:17;5.77;;;3.40;;
18084;SDS011;9169;44.492;11.372;2024-03-23T09:56:45;6.07;;;3.60;;
18084;SDS011;9169;44.492;11.372;2024-03-23T09:59:12;7.47;;;3.57;;
18084;SDS011;9169;44.492;11.372;2024-03-23T10:01:40;11.63;;;3.47;;
18084;SDS011;9169;44.492;11.372;2024-03-23T10:04:06;6.10;;;3.30;;
18084;SDS011;9169;44.492;11.372;2024-03-23T10:06:36;6.13;;;3.10;;
18084;SDS011;9169;44.492;11.372;2024-03-23T10:09:02;6.13;;;3.07;;
18084;SDS011;9169;44.492;11.372;2024-03-23T10:11:43;6.30;;;3.60;;
18084;SDS011;9169;44.492;11.372;2024-03-23T10:14:17;9.30;;;3.53;;
18084;SDS011;9169;44.492;11.372;2024-03-23T10:16:59;8.83;;;3.37;;
18084;SDS011;9169;44.492;11.372;2024-03-23T10:19:39;6.10;;;3.67;;
18084;SDS011;9169;44.492;11.372;2024-03-23T10:22:10;6.73;;;2.87;;
18084;SDS011;9169;44.492;11.372;2024-03-23T10:24:39;7.93;;;4.03;;
18084;SDS011;9169;44.492;11.372;2024-03-23T10:27:07;5.90;;;2.97;;
18084;SDS011;9169;44.492;11.372;2024-03-23T10:29:33;6.07;;;3.57;;
18084;SDS011;9169;44.492;11.372;2024-03-23T10:32:07;4.80;;;2.73;;
18084;SDS011;9169;44.492;11.372;2024-03-23T10:34:35;5.23;;;2.93;;
18084;SDS011;9169;44.492;11.372;2024-03-23T10:37:03;6.30;;;2.87;;
18084;SDS011;9169;44.492;11.372;2024-03-23T10:39:33;6.13;;;3.03;;
18084;SDS011;9169;44.492;11.372;2024-03-23T10:42:02;6.37;;;3.23;;
18084;SDS011;9169;44.492;11.372;2024-03-23T10:44:30;7.27;;;3.10;;
18084;SDS011;9169;44.492;11.372;2024-03-23T10:46:58;5.80;;;2.90;;
18084;SDS011;9169;44.492;11.372;2024-03-23T10:49:25;7.10;;;3.03;;
18084;SDS011;9169;44.492;11.372;2024-03-23T10:51:56;6.30;;;3.23;;
18084;SDS011;9169;44.492;11.372;2024-03-23T10:54:24;9.03;;;3.27;;
18084;SDS011;9169;44.492;11.372;2024-03-23T10:56:53;7.00;;;2.70;;
18084;SDS011;9169;44.492;11.372;2024-03-23T10:59:23;7.83;;;3.13;;
18084;SDS011;9169;44.492;11.372;2024-03-23T11:01:55;6.53;;;3.37;;
18084;SDS011;9169;44.492;11.372;2024-03-23T11:04:35;5.80;;;3.20;;
18084;SDS011;9169;44.492;11.372;2024-03-23T11:07:06;5.97;;;3.27;;
18084;SDS011;9169;44.492;11.372;2024-03-23T11:09:54;7.60;;;3.40;;
18084;SDS011;9169;44.492;11.372;2024-03-23T11:12:27;8.60;;;3.60;;
18084;SDS011;9169;44.492;11.372;2024-03-23T11:14:58;5.60;;;2.97;;
18084;SDS011;9169;44.492;11.372;2024-03-23T11:17:29;5.47;;;3.30;;
18084;SDS011;9169;44.492;11.372;2024-03-23T11:19:56;6.30;;;3.60;;
18084;SDS011;9169;44.492;11.372;2024-03-23T11:22:41;13.30;;;2.97;;
18084;SDS011;9169;44.492;11.372;2024-03-23T11:25:18;5.77;;;3.33;;
18084;SDS011;9169;44.492;11.372;2024-03-23T11:27:49;7.60;;;3.87;;
18084;SDS011;9169;44.492;11.372;2024-03-23T11:30:16;11.50;;;4.00;;
18084;SDS011;9169;44.492;11.372;2024-03-23T11:32:45;8.00;;;3.80;;
18084;SDS011;9169;44.492;11.372;2024-03-23T11:35:25;8.33;;;3.73;;
18084;SDS011;9169;44.492;11.372;2024-03-23T11:38:03;6.30;;;3.40;;
18084;SDS011;9169;44.492;11.372;2024-03-23T11:40:31;6.90;;;4.00;;
18084;SDS011;9169;44.492;11.372;2024-03-23T11:43:01;7.57;;;3.90;;
18084;SDS011;9169;44.492;11.372;2024-03-23T11:45:31;6.57;;;4.10;;
18084;SDS011;9169;44.492;11.372;2024-03-23T11:48:02;7.90;;;4.10;;
18084;SDS011;9169;44.492;11.372;2024-03-23T11:50:30;6.70;;;3.70;;
18084;SDS011;9169;44.492;11.372;2024-03-23T11:53:07;7.33;;;3.57;;
18084;SDS011;9169;44.492;11.372;2024-03-23T11:55:41;5.90;;;3.40;;
18084;SDS011;9169;44.492;11.372;2024-03-23T11:58:14;6.60;;;3.47;;
18084;SDS011;9169;44.492;11.372;2024-03-23T12:00:42;8.20;;;3.60;;
18084;SDS011;9169;44.492;11.372;2024-03-23T12:03:16;12.60;;;3.33;;
18084;SDS011;9169;44.492;11.372;2024-03-23T12:05:47;6.43;;;3.37;;
18084;SDS011;9169;44.492;11.372;2024-03-23T12:08:20;6.27;;;3.50;;
18084;SDS011;9169;44.492;11.372;2024-03-23T12:10:48;6.70;;;3.20;;
18084;SDS011;9169;44.492;11.372;2024-03-23T12:13:19;7.50;;;3.37;;
18084;SDS011;9169;44.492;11.372;2024-03-23T12:15:47;7.47;;;3.37;;
18084;SDS011;9169;44.492;11.372;2024-03-23T12:18:16;7.53;;;3.40;;
18084;SDS011;9169;44.492;11.372;2024-03-23T12:20:43;6.10;;;3.30;;
18084;SDS011;9169;44.492;11.372;2024-03-23T12:23:11;6.57;;;3.53;;
18084;SDS011;9169;44.492;11.372;2024-03-23T12:25:42;8.33;;;3.50;;
18084;SDS011;9169;44.492;11.372;2024-03-23T12:28:09;6.73;;;3.00;;
18084;SDS011;9169;44.492;11.372;2024-03-23T12:30:38;8.07;;;3.27;;
18084;SDS011;9169;44.492;11.372;2024-03-23T12:33:06;6.70;;;3.00;;
18084;SDS011;9169;44.492;11.372;2024-03-23T12:35:33;6.30;;;3.30;;
18084;SDS011;9169;44.492;11.372;2024-03-23T12:38:01;7.37;;;3.50;;
18084;SDS011;9169;44.492;11.372;2024-03-23T12:40:28;8.63;;;3.17;;
18084;SDS011;9169;44.492;11.372;2024-03-23T12:42:55;8.03;;;3.30;;
18084;SDS011;9169;44.492;11.372;2024-03-23T12:45:22;7.53;;;3.60;;
18084;SDS011;9169;44.492;11.372;2024-03-23T12:47:51;6.63;;;3.00;;
18084;SDS011;9169;44.492;11.372;2024-03-23T12:50:19;6.00;;;3.30;;
18084;SDS011;9169;44.492;11.372;2024-03-23T12:52:47;6.13;;;3.40;;
18084;SDS011;9169;44.492;11.372;2024-03-23T12:55:14;10.20;;;3.73;;
18084;SDS011;9169;44.492;11.372;2024-03-23T12:57:42;6.30;;;3.13;;
18084;SDS011;9169;44.492;11.372;2024-03-23T13:00:09;6.60;;;2.93;;
18084;SDS011;9169;44.492;11.372;2024-03-23T13:02:37;8.03;;;3.47;;
18084;SDS011;9169;44.492;11.372;2024-03-23T13:05:06;7.23;;;3.40;;
18084;SDS011;9169;44.492;11.372;2024-03-23T13:07:34;9.23;;;3.50;;
18084;SDS011;9169;44.492;11.372;2024-03-23T13:10:03;9.00;;;3.30;;
18084;SDS011;9169;44.492;11.372;2024-03-23T13:12:32;6.17;;;3.10;;
18084;SDS011;9169;44.492;11.372;2024-03-23T13:14:58;8.20;;;3.03;;
18084;SDS011;9169;44.492;11.372;2024-03-23T13:17:26;6.67;;;2.97;;
18084;SDS011;9169;44.492;11.372;2024-03-23T13:19:52;6.10;;;2.80;;
18084;SDS011;9169;44.492;11.372;2024-03-23T13:22:22;7.50;;;2.90;;
18084;SDS011;9169;44.492;11.372;2024-03-23T13:24:49;7.17;;;2.80;;
18084;SDS011;9169;44.492;11.372;2024-03-23T13:27:16;10.47;;;3.00;;
18084;SDS011;9169;44.492;11.372;2024-03-23T13:29:44;9.33;;;2.50;;
18084;SDS011;9169;44.492;11.372;2024-03-23T13:32:12;6.13;;;2.57;;
18084;SDS011;9169;44.492;11.372;2024-03-23T13:34:39;4.70;;;2.10;;
18084;SDS011;9169;44.492;11.372;2024-03-23T13:37:07;6.37;;;2.50;;
18084;SDS011;9169;44.492;11.372;2024-03-23T13:39:35;6.10;;;2.30;;
18084;SDS011;9169;44.492;11.372;2024-03-23T13:42:02;5.90;;;2.23;;
18084;SDS011;9169;44.492;11.372;2024-03-23T13:44:30;5.33;;;2.33;;
18084;SDS011;9169;44.492;11.372;2024-03-23T13:46:57;6.20;;;2.67;;
18084;SDS011;9169;44.492;11.372;2024-03-23T13:49:25;5.03;;;2.20;;
18084;SDS011;9169;44.492;11.372;2024-03-23T13:51:54;7.00;;;2.47;;
18084;SDS011;9169;44.492;11.372;2024-03-23T13:54:21;6.40;;;2.53;;
18084;SDS011;9169;44.492;11.372;2024-03-23T13:56:51;10.23;;;2.63;;
18084;SDS011;9169;44.492;11.372;2024-03-23T13:59:18;6.33;;;2.50;;
18084;SDS011;9169;44.492;11.372;2024-03-23T14:01:46;7.13;;;2.50;;
18084;SDS011;9169;44.492;11.372;2024-03-23T14:04:13;8.77;;;2.30;;
18084;SDS011;9169;44.492;11.372;2024-03-23T14:06:42;9.60;;;3.00;;
18084;SDS011;9169;44.492;11.372;2024-03-23T14:09:11;8.00;;;2.87;;
18084;SDS011;9169;44.492;11.372;2024-03-23T14:11:38;7.00;;;2.50;;
18084;SDS011;9169;44.492;11.372;2024-03-23T14:14:08;11.30;;;2.50;;
18084;SDS011;9169;44.492;11.372;2024-03-23T14:16:36;9.33;;;2.97;;
18084;SDS011;9169;44.492;11.372;2024-03-23T14:19:02;6.53;;;2.60;;
18084;SDS011;9169;44.492;11.372;2024-03-23T14:21:31;5.97;;;2.40;;
18084;SDS011;9169;44.492;11.372;2024-03-23T14:23:58;6.70;;;2.50;;
18084;SDS011;9169;44.492;11.372;2024-03-23T14:26:26;6.20;;;3.20;;
18084;SDS011;9169;44.492;11.372;2024-03-23T14:28:53;8.20;;;2.57;;
18084;SDS011;9169;44.492;11.372;2024-03-23T14:31:22;8.60;;;2.40;;
18084;SDS011;9169;44.492;11.372;2024-03-23T14:33:49;11.27;;;2.53;;
18084;SDS011;9169;44.492;11.372;2024-03-23T14:36:17;7.50;;;2.57;;
18084;SDS011;9169;44.492;11.372;2024-03-23T14:38:46;5.70;;;2.50;;
18084;SDS011;9169;44.492;11.372;2024-03-23T14:41:18;7.57;;;2.60;;
18084;SDS011;9169;44.492;11.372;2024-03-23T14:43:44;8.23;;;2.30;;
18084;SDS011;9169;44.492;11.372;2024-03-23T14:46:14;11.10;;;2.87;;
18084;SDS011;9169;44.492;11.372;2024-03-23T14:48:44;5.60;;;2.60;;
18084;SDS011;9169;44.492;11.372;2024-03-23T14:51:12;7.80;;;2.30;;
18084;SDS011;9169;44.492;11.372;2024-03-23T14:53:39;6.47;;;2.20;;
18084;SDS011;9169;44.492;11.372;2024-03-23T14:56:08;8.43;;;2.20;;
18084;SDS011;9169;44.492;11.372;2024-03-23T14:58:36;8.97;;;2.50;;
18084;SDS011;9169;44.492;11.372;2024-03-23T15:01:03;6.80;;;2.80;;
18084;SDS011;9169;44.492;11.372;2024-03-23T15:03:32;8.47;;;2.60;;
18084;SDS011;9169;44.492;11.372;2024-03-23T15:06:01;6.00;;;2.73;;
18084;SDS011;9169;44.492;11.372;2024-03-23T15:08:28;10.13;;;2.60;;
18084;SDS011;9169;44.492;11.372;2024-03-23T15:10:58;6.90;;;2.80;;
18084;SDS011;9169;44.492;11.372;2024-03-23T15:13:25;9.93;;;3.10;;
18084;SDS011;9169;44.492;11.372;2024-03-23T15:15:53;10.00;;;2.60;;
18084;SDS011;9169;44.492;11.372;2024-03-23T15:18:19;13.13;;;2.97;;
18084;SDS011;9169;44.492;11.372;2024-03-23T15:20:51;8.67;;;3.33;;
18084;SDS011;9169;44.492;11.372;2024-03-23T15:23:20;10.30;;;3.20;;
18084;SDS011;9169;44.492;11.372;2024-03-23T15:25:53;9.17;;;3.47;;
18084;SDS011;9169;44.492;11.372;2024-03-23T15:28:20;7.03;;;2.87;;
18084;SDS011;9169;44.492;11.372;2024-03-23T15:30:47;7.50;;;3.23;;
18084;SDS011;9169;44.492;11.372;2024-03-23T15:33:14;10.73;;;3.00;;
18084;SDS011;9169;44.492;11.372;2024-03-23T15:35:42;10.40;;;3.20;;
18084;SDS011;9169;44.492;11.372;2024-03-23T15:38:08;10.07;;;3.10;;
18084;SDS011;9169;44.492;11.372;2024-03-23T15:40:37;10.30;;;3.20;;